Pittsburgh, Pennsylvania
Current Conditions -  °F | °C
As of 7:00 AM on Friday 28 Nov 2014 (Local Time) from KAGC Reporting Station
Overcast Overcast  
Wind Chill: -8°   Ceiling: 4700
Heat Index: -3°   Visibility: 10mi
Dew Point: -8°   Wind: 7mph
Humidity: 71%   Direction: NA
Pressure: 30.28"   Gusts: NA
Location:  40.44°N, 80°W
Report Text: KAGC 281200Z VRB06KT 10SM OVC047 M03/M08 A3028 RMK AO2 T10331078
Loading
Personal Weather Stations






























Interactive Weather Map New forecast layout! Learn more

10-Day Weather Forecast

Advertisements
Track Severe Weather on mobile